sensor_id;sensor_type;location;lat;lon;timestamp;temperature;humidity
3005;DHT22;1512;51.486;6.610;2023-11-18T00:02:18;4.20;1.00
3005;DHT22;1512;51.486;6.610;2023-11-18T00:06:26;4.20;1.00
3005;DHT22;1512;51.486;6.610;2023-11-18T00:10:35;4.10;1.00
3005;DHT22;1512;51.486;6.610;2023-11-18T00:14:44;4.10;1.00
3005;DHT22;1512;51.486;6.610;2023-11-18T00:18:53;4.10;1.00
3005;DHT22;1512;51.486;6.610;2023-11-18T00:23:01;4.10;9.20
3005;DHT22;1512;51.486;6.610;2023-11-18T00:27:12;4.20;42.40
3005;DHT22;1512;51.486;6.610;2023-11-18T00:31:22;4.20;77.40
3005;DHT22;1512;51.486;6.610;2023-11-18T00:35:32;4.20;99.90
3005;DHT22;1512;51.486;6.610;2023-11-18T00:39:41;4.30;99.90
3005;DHT22;1512;51.486;6.610;2023-11-18T00:43:50;4.30;99.90
3005;DHT22;1512;51.486;6.610;2023-11-18T00:48:00;4.30;99.90
3005;DHT22;1512;51.486;6.610;2023-11-18T00:52:09;4.40;99.90
3005;DHT22;1512;51.486;6.610;2023-11-18T00:56:17;4.40;99.90
3005;DHT22;1512;51.486;6.610;2023-11-18T01:00:26;4.40;99.90
3005;DHT22;1512;51.486;6.610;2023-11-18T01:04:35;4.30;99.90
3005;DHT22;1512;51.486;6.610;2023-11-18T01:08:47;4.30;99.90
3005;DHT22;1512;51.486;6.610;2023-11-18T01:12:55;4.30;99.90
3005;DHT22;1512;51.486;6.610;2023-11-18T01:17:05;4.30;99.90
3005;DHT22;1512;51.486;6.610;2023-11-18T01:21:14;4.30;99.90
3005;DHT22;1512;51.486;6.610;2023-11-18T01:25:24;4.30;99.90
3005;DHT22;1512;51.486;6.610;2023-11-18T01:29:33;4.30;99.90
3005;DHT22;1512;51.486;6.610;2023-11-18T01:38:03;4.20;99.90
3005;DHT22;1512;51.486;6.610;2023-11-18T01:42:12;4.20;99.90
3005;DHT22;1512;51.486;6.610;2023-11-18T01:46:21;4.20;99.90
3005;DHT22;1512;51.486;6.610;2023-11-18T01:50:31;4.10;99.90
3005;DHT22;1512;51.486;6.610;2023-11-18T01:54:40;4.10;99.90
3005;DHT22;1512;51.486;6.610;2023-11-18T01:58:51;4.10;99.90
3005;DHT22;1512;51.486;6.610;2023-11-18T02:03:00;4.00;99.90
3005;DHT22;1512;51.486;6.610;2023-11-18T02:07:09;4.00;99.90
3005;DHT22;1512;51.486;6.610;2023-11-18T02:11:29;4.10;99.90
3005;DHT22;1512;51.486;6.610;2023-11-18T02:15:34;4.00;99.90
3005;DHT22;1512;51.486;6.610;2023-11-18T02:19:44;4.10;99.90
3005;DHT22;1512;51.486;6.610;2023-11-18T02:23:53;4.10;99.90
3005;DHT22;1512;51.486;6.610;2023-11-18T02:28:01;4.20;99.90
3005;DHT22;1512;51.486;6.610;2023-11-18T02:32:25;4.20;99.90
3005;DHT22;1512;51.486;6.610;2023-11-18T02:36:43;4.30;99.90
3005;DHT22;1512;51.486;6.610;2023-11-18T02:40:53;4.30;99.90
3005;DHT22;1512;51.486;6.610;2023-11-18T02:45:06;4.40;99.90
3005;DHT22;1512;51.486;6.610;2023-11-18T02:49:16;4.40;99.90
3005;DHT22;1512;51.486;6.610;2023-11-18T02:53:25;4.50;99.90
3005;DHT22;1512;51.486;6.610;2023-11-18T02:57:35;4.50;99.90
3005;DHT22;1512;51.486;6.610;2023-11-18T03:01:44;4.50;99.90
3005;DHT22;1512;51.486;6.610;2023-11-18T03:05:52;4.50;99.90
3005;DHT22;1512;51.486;6.610;2023-11-18T03:10:02;4.60;99.90
3005;DHT22;1512;51.486;6.610;2023-11-18T03:14:12;4.60;99.90
3005;DHT22;1512;51.486;6.610;2023-11-18T03:18:42;4.60;99.90
3005;DHT22;1512;51.486;6.610;2023-11-18T03:22:51;4.60;99.90
3005;DHT22;1512;51.486;6.610;2023-11-18T03:27:00;4.60;99.90
3005;DHT22;1512;51.486;6.610;2023-11-18T03:31:08;4.60;99.90
3005;DHT22;1512;51.486;6.610;2023-11-18T03:35:18;4.70;99.90
3005;DHT22;1512;51.486;6.610;2023-11-18T03:39:27;4.70;99.90
3005;DHT22;1512;51.486;6.610;2023-11-18T03:43:37;4.70;99.90
3005;DHT22;1512;51.486;6.610;2023-11-18T03:47:46;4.70;99.90
3005;DHT22;1512;51.486;6.610;2023-11-18T03:52:15;4.70;99.90
3005;DHT22;1512;51.486;6.610;2023-11-18T03:56:23;4.70;99.90
3005;DHT22;1512;51.486;6.610;2023-11-18T04:00:33;4.80;99.90
3005;DHT22;1512;51.486;6.610;2023-11-18T04:04:42;4.80;99.90
3005;DHT22;1512;51.486;6.610;2023-11-18T04:08:51;4.80;99.90
3005;DHT22;1512;51.486;6.610;2023-11-18T04:12:59;4.80;99.90
3005;DHT22;1512;51.486;6.610;2023-11-18T04:17:28;4.80;99.90
3005;DHT22;1512;51.486;6.610;2023-11-18T04:21:36;4.80;99.90
3005;DHT22;1512;51.486;6.610;2023-11-18T04:25:45;4.80;99.90
3005;DHT22;1512;51.486;6.610;2023-11-18T04:29:54;4.80;99.90
3005;DHT22;1512;51.486;6.610;2023-11-18T04:34:03;4.90;99.90
3005;DHT22;1512;51.486;6.610;2023-11-18T04:38:16;4.90;99.90
3005;DHT22;1512;51.486;6.610;2023-11-18T04:42:24;4.90;99.90
3005;DHT22;1512;51.486;6.610;2023-11-18T04:46:33;4.90;99.90
3005;DHT22;1512;51.486;6.610;2023-11-18T04:50:42;4.90;99.90
3005;DHT22;1512;51.486;6.610;2023-11-18T04:54:51;5.00;99.90
3005;DHT22;1512;51.486;6.610;2023-11-18T04:59:00;5.00;99.90
3005;DHT22;1512;51.486;6.610;2023-11-18T05:03:08;5.00;99.90
3005;DHT22;1512;51.486;6.610;2023-11-18T05:07:17;5.00;99.90
3005;DHT22;1512;51.486;6.610;2023-11-18T05:11:26;4.90;99.90
3005;DHT22;1512;51.486;6.610;2023-11-18T05:15:35;4.90;99.90
3005;DHT22;1512;51.486;6.610;2023-11-18T05:19:44;4.90;99.90
3005;DHT22;1512;51.486;6.610;2023-11-18T05:23:53;4.80;99.90
3005;DHT22;1512;51.486;6.610;2023-11-18T05:28:02;4.90;99.90
3005;DHT22;1512;51.486;6.610;2023-11-18T05:32:12;4.90;99.90
3005;DHT22;1512;51.486;6.610;2023-11-18T05:36:21;4.90;99.90
3005;DHT22;1512;51.486;6.610;2023-11-18T05:40:31;4.90;99.90
3005;DHT22;1512;51.486;6.610;2023-11-18T05:44:42;4.90;99.90
3005;DHT22;1512;51.486;6.610;2023-11-18T05:49:10;4.90;99.90
3005;DHT22;1512;51.486;6.610;2023-11-18T05:53:20;4.90;99.90
3005;DHT22;1512;51.486;6.610;2023-11-18T05:57:29;4.90;99.90
3005;DHT22;1512;51.486;6.610;2023-11-18T06:01:38;4.90;99.90
3005;DHT22;1512;51.486;6.610;2023-11-18T06:05:47;4.90;99.90
3005;DHT22;1512;51.486;6.610;2023-11-18T06:10:15;4.90;99.90
3005;DHT22;1512;51.486;6.610;2023-11-18T06:14:24;4.90;99.90
3005;DHT22;1512;51.486;6.610;2023-11-18T06:18:34;4.90;99.90
3005;DHT22;1512;51.486;6.610;2023-11-18T06:22:44;4.90;99.90
3005;DHT22;1512;51.486;6.610;2023-11-18T06:26:52;4.90;99.90
3005;DHT22;1512;51.486;6.610;2023-11-18T06:31:01;4.90;99.90
3005;DHT22;1512;51.486;6.610;2023-11-18T06:35:09;4.90;99.90
3005;DHT22;1512;51.486;6.610;2023-11-18T06:39:44;4.90;99.90
3005;DHT22;1512;51.486;6.610;2023-11-18T06:43:51;5.00;99.90
3005;DHT22;1512;51.486;6.610;2023-11-18T06:48:02;5.00;99.90
3005;DHT22;1512;51.486;6.610;2023-11-18T06:52:11;5.00;99.90
3005;DHT22;1512;51.486;6.610;2023-11-18T06:56:20;5.00;99.90
3005;DHT22;1512;51.486;6.610;2023-11-18T07:00:48;5.00;99.90
3005;DHT22;1512;51.486;6.610;2023-11-18T07:04:57;5.00;99.90
3005;DHT22;1512;51.486;6.610;2023-11-18T07:09:07;5.10;99.90
3005;DHT22;1512;51.486;6.610;2023-11-18T07:13:24;5.10;99.90
3005;DHT22;1512;51.486;6.610;2023-11-18T07:17:32;5.10;99.90
3005;DHT22;1512;51.486;6.610;2023-11-18T07:30:24;5.20;99.90
3005;DHT22;1512;51.486;6.610;2023-11-18T07:34:33;5.20;99.90
3005;DHT22;1512;51.486;6.610;2023-11-18T07:38:43;5.20;99.90
3005;DHT22;1512;51.486;6.610;2023-11-18T07:42:52;5.20;99.90
3005;DHT22;1512;51.486;6.610;2023-11-18T07:47:00;5.30;99.90
3005;DHT22;1512;51.486;6.610;2023-11-18T07:51:09;5.30;99.90
3005;DHT22;1512;51.486;6.610;2023-11-18T07:55:18;5.40;99.90
3005;DHT22;1512;51.486;6.610;2023-11-18T07:59:27;5.40;99.90
3005;DHT22;1512;51.486;6.610;2023-11-18T08:03:36;5.40;99.90
3005;DHT22;1512;51.486;6.610;2023-11-18T08:07:46;5.50;99.90
3005;DHT22;1512;51.486;6.610;2023-11-18T08:11:54;5.50;99.90
3005;DHT22;1512;51.486;6.610;2023-11-18T08:16:03;5.50;99.90
3005;DHT22;1512;51.486;6.610;2023-11-18T08:20:12;5.60;99.90
3005;DHT22;1512;51.486;6.610;2023-11-18T08:24:24;5.60;99.90
3005;DHT22;1512;51.486;6.610;2023-11-18T08:28:33;5.70;99.90
3005;DHT22;1512;51.486;6.610;2023-11-18T08:32:43;5.70;99.90
3005;DHT22;1512;51.486;6.610;2023-11-18T08:36:52;5.70;99.90
3005;DHT22;1512;51.486;6.610;2023-11-18T08:41:01;5.80;99.90
3005;DHT22;1512;51.486;6.610;2023-11-18T08:45:11;5.90;99.90
3005;DHT22;1512;51.486;6.610;2023-11-18T08:49:21;5.90;99.90
3005;DHT22;1512;51.486;6.610;2023-11-18T08:53:30;6.00;99.90
3005;DHT22;1512;51.486;6.610;2023-11-18T08:57:40;5.90;99.90
3005;DHT22;1512;51.486;6.610;2023-11-18T09:02:07;6.00;99.90
3005;DHT22;1512;51.486;6.610;2023-11-18T09:06:17;6.00;99.90
3005;DHT22;1512;51.486;6.610;2023-11-18T09:10:27;6.10;99.90
3005;DHT22;1512;51.486;6.610;2023-11-18T09:14:36;6.20;99.90
3005;DHT22;1512;51.486;6.610;2023-11-18T09:18:45;6.10;99.90
3005;DHT22;1512;51.486;6.610;2023-11-18T09:22:55;6.20;99.90
3005;DHT22;1512;51.486;6.610;2023-11-18T09:27:03;6.30;99.90
3005;DHT22;1512;51.486;6.610;2023-11-18T09:31:13;6.30;99.90
3005;DHT22;1512;51.486;6.610;2023-11-18T09:35:24;6.40;99.90
3005;DHT22;1512;51.486;6.610;2023-11-18T09:39:34;6.40;99.90
3005;DHT22;1512;51.486;6.610;2023-11-18T09:43:47;6.40;99.90
3005;DHT22;1512;51.486;6.610;2023-11-18T09:47:57;6.40;99.90
3005;DHT22;1512;51.486;6.610;2023-11-18T09:52:15;6.40;99.90
3005;DHT22;1512;51.486;6.610;2023-11-18T10:00:40;6.50;99.90
3005;DHT22;1512;51.486;6.610;2023-11-18T10:05:11;6.60;99.90
3005;DHT22;1512;51.486;6.610;2023-11-18T10:09:21;6.70;99.90
3005;DHT22;1512;51.486;6.610;2023-11-18T10:13:33;6.80;99.90
3005;DHT22;1512;51.486;6.610;2023-11-18T10:17:45;6.80;99.90
3005;DHT22;1512;51.486;6.610;2023-11-18T10:22:05;6.80;99.90
3005;DHT22;1512;51.486;6.610;2023-11-18T10:26:16;6.80;99.90
3005;DHT22;1512;51.486;6.610;2023-11-18T10:30:25;6.90;99.90
3005;DHT22;1512;51.486;6.610;2023-11-18T10:34:35;7.00;99.90
3005;DHT22;1512;51.486;6.610;2023-11-18T10:38:44;7.00;99.90
3005;DHT22;1512;51.486;6.610;2023-11-18T10:42:54;7.00;99.90
3005;DHT22;1512;51.486;6.610;2023-11-18T10:47:03;7.00;99.90
3005;DHT22;1512;51.486;6.610;2023-11-18T10:51:17;7.00;99.90
3005;DHT22;1512;51.486;6.610;2023-11-18T10:55:23;7.00;99.90
3005;DHT22;1512;51.486;6.610;2023-11-18T10:59:35;7.00;99.90
3005;DHT22;1512;51.486;6.610;2023-11-18T11:03:54;7.00;99.90
3005;DHT22;1512;51.486;6.610;2023-11-18T11:08:08;7.00;99.90
3005;DHT22;1512;51.486;6.610;2023-11-18T11:12:18;7.10;99.90
3005;DHT22;1512;51.486;6.610;2023-11-18T11:16:42;7.10;99.90
3005;DHT22;1512;51.486;6.610;2023-11-18T11:21:14;7.20;99.90
3005;DHT22;1512;51.486;6.610;2023-11-18T11:26:01;7.20;99.90
3005;DHT22;1512;51.486;6.610;2023-11-18T11:30:22;7.20;99.90
3005;DHT22;1512;51.486;6.610;2023-11-18T11:34:33;7.30;99.90
3005;DHT22;1512;51.486;6.610;2023-11-18T11:38:43;7.40;99.90
3005;DHT22;1512;51.486;6.610;2023-11-18T11:42:54;7.40;99.90
3005;DHT22;1512;51.486;6.610;2023-11-18T11:47:03;7.40;99.90
3005;DHT22;1512;51.486;6.610;2023-11-18T11:51:37;7.50;99.90
3005;DHT22;1512;51.486;6.610;2023-11-18T11:55:55;7.50;99.90
3005;DHT22;1512;51.486;6.610;2023-11-18T12:00:11;7.50;99.90
3005;DHT22;1512;51.486;6.610;2023-11-18T12:04:23;7.50;99.90
3005;DHT22;1512;51.486;6.610;2023-11-18T12:08:35;7.50;99.90
3005;DHT22;1512;51.486;6.610;2023-11-18T12:12:48;7.50;99.90
3005;DHT22;1512;51.486;6.610;2023-11-18T12:17:05;7.50;99.90
3005;DHT22;1512;51.486;6.610;2023-11-18T12:21:45;7.50;99.90
3005;DHT22;1512;51.486;6.610;2023-11-18T12:25:29;7.50;99.90
3005;DHT22;1512;51.486;6.610;2023-11-18T12:29:43;7.50;99.90
3005;DHT22;1512;51.486;6.610;2023-11-18T12:43:01;7.40;99.90
3005;DHT22;1512;51.486;6.610;2023-11-18T12:47:13;7.40;99.90
3005;DHT22;1512;51.486;6.610;2023-11-18T12:51:25;7.50;99.90
3005;DHT22;1512;51.486;6.610;2023-11-18T12:55:34;7.40;99.90
3005;DHT22;1512;51.486;6.610;2023-11-18T12:59:43;7.50;99.90
3005;DHT22;1512;51.486;6.610;2023-11-18T13:03:53;7.50;99.90
3005;DHT22;1512;51.486;6.610;2023-11-18T13:08:04;7.60;99.90
3005;DHT22;1512;51.486;6.610;2023-11-18T13:12:13;7.70;99.90
3005;DHT22;1512;51.486;6.610;2023-11-18T13:16:27;7.70;99.90
3005;DHT22;1512;51.486;6.610;2023-11-18T13:20:35;7.70;99.90
3005;DHT22;1512;51.486;6.610;2023-11-18T13:24:45;7.70;99.90
3005;DHT22;1512;51.486;6.610;2023-11-18T13:28:53;7.70;99.90
3005;DHT22;1512;51.486;6.610;2023-11-18T13:33:02;7.70;99.90
3005;DHT22;1512;51.486;6.610;2023-11-18T13:37:11;7.70;99.90
3005;DHT22;1512;51.486;6.610;2023-11-18T13:41:32;7.70;99.90
3005;DHT22;1512;51.486;6.610;2023-11-18T13:45:41;7.70;99.90
3005;DHT22;1512;51.486;6.610;2023-11-18T13:49:56;7.70;99.90
3005;DHT22;1512;51.486;6.610;2023-11-18T13:54:07;7.70;99.90
3005;DHT22;1512;51.486;6.610;2023-11-18T13:58:16;7.70;99.90
3005;DHT22;1512;51.486;6.610;2023-11-18T14:02:28;7.70;99.90
3005;DHT22;1512;51.486;6.610;2023-11-18T14:06:37;7.70;99.90
3005;DHT22;1512;51.486;6.610;2023-11-18T14:10:47;7.70;99.90
3005;DHT22;1512;51.486;6.610;2023-11-18T14:14:59;7.60;99.90
3005;DHT22;1512;51.486;6.610;2023-11-18T14:19:07;7.70;99.90
3005;DHT22;1512;51.486;6.610;2023-11-18T14:23:16;7.70;99.90
3005;DHT22;1512;51.486;6.610;2023-11-18T14:27:26;7.70;99.90
3005;DHT22;1512;51.486;6.610;2023-11-18T14:31:36;7.60;99.90
3005;DHT22;1512;51.486;6.610;2023-11-18T14:35:46;7.60;99.90
3005;DHT22;1512;51.486;6.610;2023-11-18T14:39:55;7.60;99.90
3005;DHT22;1512;51.486;6.610;2023-11-18T14:44:04;7.60;99.90
3005;DHT22;1512;51.486;6.610;2023-11-18T14:48:12;7.60;99.90
3005;DHT22;1512;51.486;6.610;2023-11-18T14:52:21;7.60;99.90
3005;DHT22;1512;51.486;6.610;2023-11-18T14:56:30;7.60;99.90
3005;DHT22;1512;51.486;6.610;2023-11-18T15:00:38;7.50;99.90
3005;DHT22;1512;51.486;6.610;2023-11-18T15:04:47;7.50;99.90
3005;DHT22;1512;51.486;6.610;2023-11-18T15:08:55;7.50;99.90
3005;DHT22;1512;51.486;6.610;2023-11-18T15:13:11;7.50;99.90
3005;DHT22;1512;51.486;6.610;2023-11-18T15:17:41;7.50;99.90
3005;DHT22;1512;51.486;6.610;2023-11-18T15:21:52;7.50;99.90
3005;DHT22;1512;51.486;6.610;2023-11-18T15:26:01;7.50;99.90
3005;DHT22;1512;51.486;6.610;2023-11-18T15:30:10;7.50;99.90
3005;DHT22;1512;51.486;6.610;2023-11-18T15:34:19;7.50;99.90
3005;DHT22;1512;51.486;6.610;2023-11-18T15:38:28;7.50;99.90
3005;DHT22;1512;51.486;6.610;2023-11-18T15:42:38;7.50;99.90
3005;DHT22;1512;51.486;6.610;2023-11-18T15:46:48;7.50;99.90
3005;DHT22;1512;51.486;6.610;2023-11-18T15:50:57;7.50;99.90
3005;DHT22;1512;51.486;6.610;2023-11-18T15:55:07;7.50;99.90
3005;DHT22;1512;51.486;6.610;2023-11-18T15:59:21;7.50;99.90
3005;DHT22;1512;51.486;6.610;2023-11-18T16:03:31;7.50;99.90
3005;DHT22;1512;51.486;6.610;2023-11-18T16:07:40;7.50;99.90
3005;DHT22;1512;51.486;6.610;2023-11-18T16:11:48;7.60;99.90
3005;DHT22;1512;51.486;6.610;2023-11-18T16:15:57;7.60;99.90
3005;DHT22;1512;51.486;6.610;2023-11-18T16:20:06;7.60;99.90
3005;DHT22;1512;51.486;6.610;2023-11-18T16:24:15;7.60;99.90
3005;DHT22;1512;51.486;6.610;2023-11-18T16:28:23;7.60;99.90
3005;DHT22;1512;51.486;6.610;2023-11-18T16:32:32;7.70;99.90
3005;DHT22;1512;51.486;6.610;2023-11-18T16:36:41;7.70;99.90
3005;DHT22;1512;51.486;6.610;2023-11-18T16:40:52;7.70;99.90
3005;DHT22;1512;51.486;6.610;2023-11-18T16:45:00;7.70;99.90
3005;DHT22;1512;51.486;6.610;2023-11-18T16:49:13;7.70;99.90
3005;DHT22;1512;51.486;6.610;2023-11-18T16:53:23;7.70;99.90
3005;DHT22;1512;51.486;6.610;2023-11-18T16:57:33;7.70;99.90
3005;DHT22;1512;51.486;6.610;2023-11-18T17:01:42;7.70;99.90
3005;DHT22;1512;51.486;6.610;2023-11-18T17:05:51;7.70;99.90
3005;DHT22;1512;51.486;6.610;2023-11-18T17:09:59;7.70;99.90
3005;DHT22;1512;51.486;6.610;2023-11-18T17:14:08;7.70;99.90
3005;DHT22;1512;51.486;6.610;2023-11-18T17:18:17;7.80;99.90
3005;DHT22;1512;51.486;6.610;2023-11-18T17:22:25;7.80;99.90
3005;DHT22;1512;51.486;6.610;2023-11-18T17:26:35;7.80;99.90
3005;DHT22;1512;51.486;6.610;2023-11-18T17:30:47;7.80;99.90
3005;DHT22;1512;51.486;6.610;2023-11-18T17:34:56;7.80;99.90
3005;DHT22;1512;51.486;6.610;2023-11-18T17:39:06;7.80;99.90
3005;DHT22;1512;51.486;6.610;2023-11-18T17:43:17;7.80;99.90
3005;DHT22;1512;51.486;6.610;2023-11-18T17:47:25;7.80;99.90
3005;DHT22;1512;51.486;6.610;2023-11-18T17:51:34;7.80;99.90
3005;DHT22;1512;51.486;6.610;2023-11-18T17:55:43;7.90;99.90
3005;DHT22;1512;51.486;6.610;2023-11-18T17:59:53;7.90;99.90
3005;DHT22;1512;51.486;6.610;2023-11-18T18:04:03;7.90;99.90
3005;DHT22;1512;51.486;6.610;2023-11-18T18:08:12;7.90;99.90
3005;DHT22;1512;51.486;6.610;2023-11-18T18:12:22;7.90;99.90
3005;DHT22;1512;51.486;6.610;2023-11-18T18:16:30;7.90;99.90
3005;DHT22;1512;51.486;6.610;2023-11-18T18:20:39;7.90;99.90
3005;DHT22;1512;51.486;6.610;2023-11-18T18:24:49;8.00;99.90
3005;DHT22;1512;51.486;6.610;2023-11-18T18:28:58;8.00;99.90
3005;DHT22;1512;51.486;6.610;2023-11-18T18:33:07;8.00;99.90
3005;DHT22;1512;51.486;6.610;2023-11-18T18:37:17;8.00;99.90
3005;DHT22;1512;51.486;6.610;2023-11-18T18:41:26;8.00;99.90
3005;DHT22;1512;51.486;6.610;2023-11-18T18:45:36;8.10;99.90
3005;DHT22;1512;51.486;6.610;2023-11-18T18:49:45;8.10;99.90
3005;DHT22;1512;51.486;6.610;2023-11-18T18:53:55;8.10;99.90
3005;DHT22;1512;51.486;6.610;2023-11-18T18:58:04;8.10;99.90
3005;DHT22;1512;51.486;6.610;2023-11-18T19:02:12;8.10;99.90
3005;DHT22;1512;51.486;6.610;2023-11-18T19:06:22;8.20;99.90
3005;DHT22;1512;51.486;6.610;2023-11-18T19:10:30;8.20;99.90
3005;DHT22;1512;51.486;6.610;2023-11-18T19:14:40;8.20;99.90
3005;DHT22;1512;51.486;6.610;2023-11-18T19:18:48;8.30;99.90
3005;DHT22;1512;51.486;6.610;2023-11-18T19:22:57;8.30;99.90
3005;DHT22;1512;51.486;6.610;2023-11-18T19:27:06;8.30;99.90
3005;DHT22;1512;51.486;6.610;2023-11-18T19:31:16;8.30;99.90
3005;DHT22;1512;51.486;6.610;2023-11-18T19:35:25;8.40;99.90
3005;DHT22;1512;51.486;6.610;2023-11-18T19:39:35;8.40;99.90
3005;DHT22;1512;51.486;6.610;2023-11-18T19:43:45;8.40;99.90
3005;DHT22;1512;51.486;6.610;2023-11-18T19:47:54;8.40;99.90
3005;DHT22;1512;51.486;6.610;2023-11-18T19:52:03;8.50;99.90
3005;DHT22;1512;51.486;6.610;2023-11-18T19:56:14;8.50;99.90
3005;DHT22;1512;51.486;6.610;2023-11-18T20:00:22;8.50;99.90
3005;DHT22;1512;51.486;6.610;2023-11-18T20:04:33;8.60;99.90
3005;DHT22;1512;51.486;6.610;2023-11-18T20:08:42;8.60;99.90
3005;DHT22;1512;51.486;6.610;2023-11-18T20:12:51;8.70;99.90
3005;DHT22;1512;51.486;6.610;2023-11-18T20:17:00;8.70;99.90
3005;DHT22;1512;51.486;6.610;2023-11-18T20:21:09;8.80;99.90
3005;DHT22;1512;51.486;6.610;2023-11-18T20:25:22;8.90;99.90
3005;DHT22;1512;51.486;6.610;2023-11-18T20:29:28;8.90;99.90
3005;DHT22;1512;51.486;6.610;2023-11-18T20:33:36;8.90;99.90
3005;DHT22;1512;51.486;6.610;2023-11-18T20:37:46;8.90;99.90
3005;DHT22;1512;51.486;6.610;2023-11-18T20:41:55;8.90;99.90
3005;DHT22;1512;51.486;6.610;2023-11-18T20:46:04;8.90;99.90
3005;DHT22;1512;51.486;6.610;2023-11-18T20:50:14;9.00;99.90
3005;DHT22;1512;51.486;6.610;2023-11-18T20:54:23;9.00;99.90
3005;DHT22;1512;51.486;6.610;2023-11-18T20:58:31;9.00;99.90
3005;DHT22;1512;51.486;6.610;2023-11-18T21:02:40;9.00;99.90
3005;DHT22;1512;51.486;6.610;2023-11-18T21:06:49;9.00;99.90
3005;DHT22;1512;51.486;6.610;2023-11-18T21:10:58;9.10;99.90
3005;DHT22;1512;51.486;6.610;2023-11-18T21:15:06;9.20;99.90
3005;DHT22;1512;51.486;6.610;2023-11-18T21:19:15;9.20;99.90
3005;DHT22;1512;51.486;6.610;2023-11-18T21:23:25;9.30;99.90
3005;DHT22;1512;51.486;6.610;2023-11-18T21:27:34;9.30;99.90
3005;DHT22;1512;51.486;6.610;2023-11-18T21:31:42;9.30;99.90
3005;DHT22;1512;51.486;6.610;2023-11-18T21:35:51;9.30;99.90
3005;DHT22;1512;51.486;6.610;2023-11-18T21:39:59;9.30;99.90
3005;DHT22;1512;51.486;6.610;2023-11-18T21:44:08;9.40;99.90
3005;DHT22;1512;51.486;6.610;2023-11-18T21:48:17;9.40;99.90
3005;DHT22;1512;51.486;6.610;2023-11-18T21:52:27;9.40;99.90
3005;DHT22;1512;51.486;6.610;2023-11-18T21:56:36;9.40;99.90
3005;DHT22;1512;51.486;6.610;2023-11-18T22:00:45;9.40;99.90
3005;DHT22;1512;51.486;6.610;2023-11-18T22:04:54;9.40;99.90
3005;DHT22;1512;51.486;6.610;2023-11-18T22:09:03;9.40;99.90
3005;DHT22;1512;51.486;6.610;2023-11-18T22:13:12;9.50;99.90
3005;DHT22;1512;51.486;6.610;2023-11-18T22:17:20;9.50;99.90
3005;DHT22;1512;51.486;6.610;2023-11-18T22:21:29;9.50;99.90
3005;DHT22;1512;51.486;6.610;2023-11-18T22:25:39;9.50;99.90
3005;DHT22;1512;51.486;6.610;2023-11-18T22:29:50;9.50;99.90
3005;DHT22;1512;51.486;6.610;2023-11-18T22:33:59;9.50;99.90
3005;DHT22;1512;51.486;6.610;2023-11-18T22:38:08;9.60;99.90
3005;DHT22;1512;51.486;6.610;2023-11-18T22:42:17;9.60;99.90
3005;DHT22;1512;51.486;6.610;2023-11-18T22:46:26;9.70;99.90
3005;DHT22;1512;51.486;6.610;2023-11-18T22:50:35;9.70;99.90
3005;DHT22;1512;51.486;6.610;2023-11-18T22:54:45;9.80;99.90
3005;DHT22;1512;51.486;6.610;2023-11-18T22:58:54;9.80;99.90
3005;DHT22;1512;51.486;6.610;2023-11-18T23:03:02;10.00;99.90
3005;DHT22;1512;51.486;6.610;2023-11-18T23:07:13;10.10;99.90
3005;DHT22;1512;51.486;6.610;2023-11-18T23:11:22;10.30;99.90
3005;DHT22;1512;51.486;6.610;2023-11-18T23:15:33;10.30;99.90
3005;DHT22;1512;51.486;6.610;2023-11-18T23:19:47;10.50;99.90
3005;DHT22;1512;51.486;6.610;2023-11-18T23:23:57;10.60;99.90
3005;DHT22;1512;51.486;6.610;2023-11-18T23:28:05;10.60;99.90
3005;DHT22;1512;51.486;6.610;2023-11-18T23:32:16;10.70;99.90
3005;DHT22;1512;51.486;6.610;2023-11-18T23:36:24;10.80;99.90
3005;DHT22;1512;51.486;6.610;2023-11-18T23:40:33;10.90;99.90
3005;DHT22;1512;51.486;6.610;2023-11-18T23:44:43;11.00;99.90
3005;DHT22;1512;51.486;6.610;2023-11-18T23:48:52;11.00;99.90
3005;DHT22;1512;51.486;6.610;2023-11-18T23:53:00;11.20;99.90
3005;DHT22;1512;51.486;6.610;2023-11-18T23:57:10;11.20;99.90
